sensor_id;sensor_type;location;lat;lon;timestamp;P1;durP1;ratioP1;P2;durP2;ratioP2
48623;SDS011;34422;45.802;16.114;2023-02-08T00:02:19;86.67;;;42.03;;
48623;SDS011;34422;45.802;16.114;2023-02-08T00:04:46;88.53;;;42.83;;
48623;SDS011;34422;45.802;16.114;2023-02-08T00:07:12;94.53;;;42.97;;
48623;SDS011;34422;45.802;16.114;2023-02-08T00:09:39;93.37;;;41.53;;
48623;SDS011;34422;45.802;16.114;2023-02-08T00:12:06;92.60;;;44.57;;
48623;SDS011;34422;45.802;16.114;2023-02-08T00:14:33;95.40;;;44.07;;
48623;SDS011;34422;45.802;16.114;2023-02-08T00:17:00;112.17;;;49.47;;
48623;SDS011;34422;45.802;16.114;2023-02-08T00:19:26;90.77;;;46.50;;
48623;SDS011;34422;45.802;16.114;2023-02-08T00:21:53;95.23;;;43.33;;
48623;SDS011;34422;45.802;16.114;2023-02-08T00:24:20;89.73;;;42.93;;
48623;SDS011;34422;45.802;16.114;2023-02-08T00:26:46;98.07;;;47.67;;
48623;SDS011;34422;45.802;16.114;2023-02-08T00:29:13;92.10;;;44.37;;
48623;SDS011;34422;45.802;16.114;2023-02-08T00:31:40;102.03;;;47.03;;
48623;SDS011;34422;45.802;16.114;2023-02-08T00:34:07;89.03;;;43.37;;
48623;SDS011;34422;45.802;16.114;2023-02-08T00:36:33;84.63;;;43.57;;
48623;SDS011;34422;45.802;16.114;2023-02-08T00:39:00;94.70;;;43.70;;
48623;SDS011;34422;45.802;16.114;2023-02-08T00:41:27;96.60;;;45.93;;
48623;SDS011;34422;45.802;16.114;2023-02-08T00:43:54;97.27;;;43.60;;
48623;SDS011;34422;45.802;16.114;2023-02-08T00:46:21;94.10;;;43.50;;
48623;SDS011;34422;45.802;16.114;2023-02-08T00:48:48;93.57;;;44.60;;
48623;SDS011;34422;45.802;16.114;2023-02-08T00:51:15;91.70;;;45.07;;
48623;SDS011;34422;45.802;16.114;2023-02-08T00:53:43;83.87;;;39.30;;
48623;SDS011;34422;45.802;16.114;2023-02-08T00:56:11;89.67;;;44.23;;
48623;SDS011;34422;45.802;16.114;2023-02-08T00:58:39;82.97;;;41.50;;
48623;SDS011;34422;45.802;16.114;2023-02-08T01:01:06;92.70;;;42.00;;
48623;SDS011;34422;45.802;16.114;2023-02-08T01:03:34;92.47;;;41.27;;
48623;SDS011;34422;45.802;16.114;2023-02-08T01:06:04;92.80;;;44.67;;
48623;SDS011;34422;45.802;16.114;2023-02-08T01:08:32;90.23;;;44.07;;
48623;SDS011;34422;45.802;16.114;2023-02-08T01:11:10;95.40;;;45.33;;
48623;SDS011;34422;45.802;16.114;2023-02-08T01:13:40;148.33;;;61.60;;
48623;SDS011;34422;45.802;16.114;2023-02-08T01:16:29;130.47;;;53.33;;
48623;SDS011;34422;45.802;16.114;2023-02-08T01:18:56;99.97;;;44.83;;
48623;SDS011;34422;45.802;16.114;2023-02-08T01:21:26;82.50;;;39.77;;
48623;SDS011;34422;45.802;16.114;2023-02-08T01:23:55;81.30;;;39.37;;
48623;SDS011;34422;45.802;16.114;2023-02-08T01:26:22;98.53;;;46.30;;
48623;SDS011;34422;45.802;16.114;2023-02-08T01:28:50;93.43;;;43.13;;
48623;SDS011;34422;45.802;16.114;2023-02-08T01:31:18;103.90;;;45.10;;
48623;SDS011;34422;45.802;16.114;2023-02-08T01:33:48;100.13;;;42.73;;
48623;SDS011;34422;45.802;16.114;2023-02-08T01:36:14;111.43;;;47.50;;
48623;SDS011;34422;45.802;16.114;2023-02-08T01:38:42;102.00;;;44.90;;
48623;SDS011;34422;45.802;16.114;2023-02-08T01:41:14;93.87;;;43.70;;
48623;SDS011;34422;45.802;16.114;2023-02-08T01:44:03;91.37;;;40.13;;
48623;SDS011;34422;45.802;16.114;2023-02-08T01:46:38;91.37;;;42.30;;
48623;SDS011;34422;45.802;16.114;2023-02-08T01:49:11;93.13;;;44.47;;
48623;SDS011;34422;45.802;16.114;2023-02-08T01:51:46;89.53;;;43.13;;
48623;SDS011;34422;45.802;16.114;2023-02-08T01:54:17;92.60;;;43.13;;
48623;SDS011;34422;45.802;16.114;2023-02-08T01:56:48;82.70;;;39.65;;
48623;SDS011;34422;45.802;16.114;2023-02-08T01:59:23;87.37;;;40.83;;
48623;SDS011;34422;45.802;16.114;2023-02-08T02:01:58;80.23;;;38.80;;
48623;SDS011;34422;45.802;16.114;2023-02-08T02:04:26;93.40;;;40.83;;
48623;SDS011;34422;45.802;16.114;2023-02-08T02:06:55;88.37;;;41.03;;
48623;SDS011;34422;45.802;16.114;2023-02-08T02:09:28;92.03;;;42.30;;
48623;SDS011;34422;45.802;16.114;2023-02-08T02:12:02;83.03;;;39.27;;
48623;SDS011;34422;45.802;16.114;2023-02-08T02:14:28;85.00;;;40.83;;
48623;SDS011;34422;45.802;16.114;2023-02-08T02:16:58;87.10;;;40.30;;
48623;SDS011;34422;45.802;16.114;2023-02-08T02:19:48;89.20;;;40.63;;
48623;SDS011;34422;45.802;16.114;2023-02-08T02:34:32;85.60;;;39.00;;
48623;SDS011;34422;45.802;16.114;2023-02-08T02:48:36;75.53;;;35.37;;
48623;SDS011;34422;45.802;16.114;2023-02-08T02:54:10;77.87;;;33.87;;
48623;SDS011;34422;45.802;16.114;2023-02-08T02:56:42;64.27;;;31.50;;
48623;SDS011;34422;45.802;16.114;2023-02-08T02:59:12;75.93;;;33.90;;
48623;SDS011;34422;45.802;16.114;2023-02-08T03:01:42;66.10;;;32.13;;
48623;SDS011;34422;45.802;16.114;2023-02-08T03:04:56;69.23;;;30.63;;
48623;SDS011;34422;45.802;16.114;2023-02-08T03:09:34;67.57;;;30.67;;
48623;SDS011;34422;45.802;16.114;2023-02-08T03:12:10;60.60;;;31.30;;
48623;SDS011;34422;45.802;16.114;2023-02-08T03:14:57;69.93;;;31.57;;
48623;SDS011;34422;45.802;16.114;2023-02-08T03:17:48;69.43;;;31.93;;
48623;SDS011;34422;45.802;16.114;2023-02-08T03:20:38;75.40;;;35.20;;
48623;SDS011;34422;45.802;16.114;2023-02-08T03:23:18;76.65;;;35.75;;
48623;SDS011;34422;45.802;16.114;2023-02-08T03:28:50;82.97;;;39.27;;
48623;SDS011;34422;45.802;16.114;2023-02-08T03:31:30;88.20;;;40.30;;
48623;SDS011;34422;45.802;16.114;2023-02-08T03:34:07;83.50;;;39.37;;
48623;SDS011;34422;45.802;16.114;2023-02-08T03:36:44;72.97;;;36.00;;
48623;SDS011;34422;45.802;16.114;2023-02-08T03:39:16;78.00;;;36.40;;
48623;SDS011;34422;45.802;16.114;2023-02-08T03:41:48;79.83;;;36.60;;
48623;SDS011;34422;45.802;16.114;2023-02-08T03:44:43;77.83;;;38.03;;
48623;SDS011;34422;45.802;16.114;2023-02-08T03:47:23;82.87;;;39.03;;
48623;SDS011;34422;45.802;16.114;2023-02-08T03:49:54;84.90;;;37.87;;
48623;SDS011;34422;45.802;16.114;2023-02-08T03:52:25;72.45;;;35.30;;
48623;SDS011;34422;45.802;16.114;2023-02-08T03:55:09;76.00;;;37.27;;
48623;SDS011;34422;45.802;16.114;2023-02-08T03:57:43;79.60;;;37.07;;
48623;SDS011;34422;45.802;16.114;2023-02-08T04:00:13;79.77;;;36.70;;
48623;SDS011;34422;45.802;16.114;2023-02-08T04:02:45;82.37;;;37.53;;
48623;SDS011;34422;45.802;16.114;2023-02-08T04:05:18;76.70;;;33.83;;
48623;SDS011;34422;45.802;16.114;2023-02-08T04:07:46;80.00;;;38.20;;
48623;SDS011;34422;45.802;16.114;2023-02-08T04:10:13;81.40;;;36.23;;
48623;SDS011;34422;45.802;16.114;2023-02-08T04:12:41;74.33;;;37.20;;
48623;SDS011;34422;45.802;16.114;2023-02-08T04:15:09;89.93;;;38.83;;
48623;SDS011;34422;45.802;16.114;2023-02-08T04:17:35;87.50;;;40.80;;
48623;SDS011;34422;45.802;16.114;2023-02-08T04:20:02;86.87;;;39.70;;
48623;SDS011;34422;45.802;16.114;2023-02-08T04:22:29;75.93;;;36.03;;
48623;SDS011;34422;45.802;16.114;2023-02-08T04:24:56;78.40;;;33.93;;
48623;SDS011;34422;45.802;16.114;2023-02-08T04:27:24;71.20;;;34.20;;
48623;SDS011;34422;45.802;16.114;2023-02-08T04:29:50;70.93;;;32.17;;
48623;SDS011;34422;45.802;16.114;2023-02-08T04:32:17;75.00;;;33.53;;
48623;SDS011;34422;45.802;16.114;2023-02-08T04:34:44;72.73;;;31.70;;
48623;SDS011;34422;45.802;16.114;2023-02-08T04:37:11;70.83;;;32.27;;
48623;SDS011;34422;45.802;16.114;2023-02-08T04:39:38;68.13;;;29.70;;
48623;SDS011;34422;45.802;16.114;2023-02-08T04:42:05;62.17;;;29.87;;
48623;SDS011;34422;45.802;16.114;2023-02-08T04:44:32;64.37;;;27.67;;
48623;SDS011;34422;45.802;16.114;2023-02-08T04:46:59;65.03;;;29.03;;
48623;SDS011;34422;45.802;16.114;2023-02-08T04:49:26;60.43;;;30.13;;
48623;SDS011;34422;45.802;16.114;2023-02-08T04:51:53;59.87;;;31.00;;
48623;SDS011;34422;45.802;16.114;2023-02-08T04:54:20;57.63;;;28.60;;
48623;SDS011;34422;45.802;16.114;2023-02-08T04:56:46;65.13;;;32.30;;
48623;SDS011;34422;45.802;16.114;2023-02-08T04:59:13;65.13;;;30.40;;
48623;SDS011;34422;45.802;16.114;2023-02-08T05:01:40;71.03;;;33.17;;
48623;SDS011;34422;45.802;16.114;2023-02-08T05:04:07;72.27;;;34.73;;
48623;SDS011;34422;45.802;16.114;2023-02-08T05:06:34;75.67;;;32.93;;
48623;SDS011;34422;45.802;16.114;2023-02-08T05:09:01;77.90;;;35.90;;
48623;SDS011;34422;45.802;16.114;2023-02-08T05:11:28;71.83;;;36.30;;
48623;SDS011;34422;45.802;16.114;2023-02-08T05:13:55;70.60;;;35.73;;
48623;SDS011;34422;45.802;16.114;2023-02-08T05:16:22;77.27;;;36.87;;
48623;SDS011;34422;45.802;16.114;2023-02-08T05:18:49;72.87;;;35.60;;
48623;SDS011;34422;45.802;16.114;2023-02-08T05:21:15;76.57;;;35.37;;
48623;SDS011;34422;45.802;16.114;2023-02-08T05:23:42;69.27;;;35.70;;
48623;SDS011;34422;45.802;16.114;2023-02-08T05:26:09;69.10;;;34.63;;
48623;SDS011;34422;45.802;16.114;2023-02-08T05:28:36;75.07;;;36.03;;
48623;SDS011;34422;45.802;16.114;2023-02-08T05:31:11;70.00;;;34.37;;
48623;SDS011;34422;45.802;16.114;2023-02-08T05:33:40;67.90;;;34.57;;
48623;SDS011;34422;45.802;16.114;2023-02-08T05:36:07;75.33;;;35.70;;
48623;SDS011;34422;45.802;16.114;2023-02-08T05:38:34;65.33;;;32.10;;
48623;SDS011;34422;45.802;16.114;2023-02-08T05:41:01;71.40;;;35.40;;
48623;SDS011;34422;45.802;16.114;2023-02-08T05:43:28;76.87;;;37.10;;
48623;SDS011;34422;45.802;16.114;2023-02-08T05:45:55;69.43;;;34.53;;
48623;SDS011;34422;45.802;16.114;2023-02-08T05:48:22;66.83;;;31.83;;
48623;SDS011;34422;45.802;16.114;2023-02-08T05:50:49;66.83;;;34.77;;
48623;SDS011;34422;45.802;16.114;2023-02-08T05:53:15;70.47;;;31.93;;
48623;SDS011;34422;45.802;16.114;2023-02-08T05:55:43;64.77;;;32.73;;
48623;SDS011;34422;45.802;16.114;2023-02-08T05:58:11;60.43;;;27.53;;
48623;SDS011;34422;45.802;16.114;2023-02-08T06:00:38;61.93;;;28.90;;
48623;SDS011;34422;45.802;16.114;2023-02-08T06:03:05;56.10;;;26.53;;
48623;SDS011;34422;45.802;16.114;2023-02-08T06:05:32;56.13;;;27.67;;
48623;SDS011;34422;45.802;16.114;2023-02-08T06:07:58;55.97;;;28.00;;
48623;SDS011;34422;45.802;16.114;2023-02-08T06:10:25;56.43;;;28.90;;
48623;SDS011;34422;45.802;16.114;2023-02-08T06:12:52;51.57;;;25.87;;
48623;SDS011;34422;45.802;16.114;2023-02-08T06:15:19;59.60;;;27.03;;
48623;SDS011;34422;45.802;16.114;2023-02-08T06:17:45;54.50;;;25.23;;
48623;SDS011;34422;45.802;16.114;2023-02-08T06:20:12;57.60;;;28.33;;
48623;SDS011;34422;45.802;16.114;2023-02-08T06:22:39;55.10;;;26.33;;
48623;SDS011;34422;45.802;16.114;2023-02-08T06:25:06;51.63;;;26.53;;
48623;SDS011;34422;45.802;16.114;2023-02-08T06:27:33;51.43;;;26.10;;
48623;SDS011;34422;45.802;16.114;2023-02-08T06:29:59;62.77;;;30.70;;
48623;SDS011;34422;45.802;16.114;2023-02-08T06:32:26;60.50;;;29.70;;
48623;SDS011;34422;45.802;16.114;2023-02-08T06:34:54;57.50;;;28.83;;
48623;SDS011;34422;45.802;16.114;2023-02-08T06:37:20;52.57;;;25.57;;
48623;SDS011;34422;45.802;16.114;2023-02-08T06:39:47;56.23;;;26.87;;
48623;SDS011;34422;45.802;16.114;2023-02-08T06:42:14;53.23;;;26.93;;
48623;SDS011;34422;45.802;16.114;2023-02-08T06:44:41;57.03;;;27.63;;
48623;SDS011;34422;45.802;16.114;2023-02-08T06:47:07;54.70;;;30.70;;
48623;SDS011;34422;45.802;16.114;2023-02-08T06:49:34;50.67;;;27.07;;
48623;SDS011;34422;45.802;16.114;2023-02-08T06:52:01;59.20;;;27.50;;
48623;SDS011;34422;45.802;16.114;2023-02-08T06:54:28;57.63;;;27.00;;
48623;SDS011;34422;45.802;16.114;2023-02-08T06:56:54;56.97;;;27.00;;
48623;SDS011;34422;45.802;16.114;2023-02-08T06:59:21;58.90;;;29.67;;
48623;SDS011;34422;45.802;16.114;2023-02-08T07:01:48;53.77;;;26.87;;
48623;SDS011;34422;45.802;16.114;2023-02-08T07:04:15;52.27;;;25.60;;
48623;SDS011;34422;45.802;16.114;2023-02-08T07:06:42;58.67;;;26.70;;
48623;SDS011;34422;45.802;16.114;2023-02-08T07:09:09;52.60;;;26.03;;
48623;SDS011;34422;45.802;16.114;2023-02-08T07:11:36;52.53;;;26.13;;
48623;SDS011;34422;45.802;16.114;2023-02-08T07:14:03;47.77;;;25.03;;
48623;SDS011;34422;45.802;16.114;2023-02-08T07:16:30;47.90;;;25.13;;
48623;SDS011;34422;45.802;16.114;2023-02-08T07:18:58;49.63;;;24.60;;
48623;SDS011;34422;45.802;16.114;2023-02-08T07:21:24;51.03;;;26.73;;
48623;SDS011;34422;45.802;16.114;2023-02-08T07:23:51;55.20;;;26.00;;
48623;SDS011;34422;45.802;16.114;2023-02-08T07:26:18;55.70;;;27.77;;
48623;SDS011;34422;45.802;16.114;2023-02-08T07:28:45;56.20;;;25.07;;
48623;SDS011;34422;45.802;16.114;2023-02-08T07:31:12;57.10;;;25.83;;
48623;SDS011;34422;45.802;16.114;2023-02-08T07:33:41;60.67;;;27.03;;
48623;SDS011;34422;45.802;16.114;2023-02-08T07:36:08;52.17;;;27.93;;
48623;SDS011;34422;45.802;16.114;2023-02-08T07:38:36;46.40;;;25.10;;
48623;SDS011;34422;45.802;16.114;2023-02-08T07:41:05;49.40;;;24.17;;
48623;SDS011;34422;45.802;16.114;2023-02-08T07:43:34;43.93;;;24.07;;
48623;SDS011;34422;45.802;16.114;2023-02-08T07:46:05;44.90;;;22.43;;
48623;SDS011;34422;45.802;16.114;2023-02-08T07:48:36;51.37;;;24.53;;
48623;SDS011;34422;45.802;16.114;2023-02-08T07:51:03;49.53;;;24.70;;
48623;SDS011;34422;45.802;16.114;2023-02-08T07:53:31;47.77;;;23.50;;
48623;SDS011;34422;45.802;16.114;2023-02-08T07:55:58;41.80;;;22.00;;
48623;SDS011;34422;45.802;16.114;2023-02-08T07:58:25;43.27;;;22.83;;
48623;SDS011;34422;45.802;16.114;2023-02-08T08:00:52;41.57;;;21.47;;
48623;SDS011;34422;45.802;16.114;2023-02-08T08:03:19;41.57;;;21.73;;
48623;SDS011;34422;45.802;16.114;2023-02-08T08:05:46;42.07;;;23.20;;
48623;SDS011;34422;45.802;16.114;2023-02-08T08:08:14;44.70;;;24.30;;
48623;SDS011;34422;45.802;16.114;2023-02-08T08:10:41;45.07;;;23.23;;
48623;SDS011;34422;45.802;16.114;2023-02-08T08:13:08;54.23;;;25.83;;
48623;SDS011;34422;45.802;16.114;2023-02-08T08:15:35;50.77;;;24.00;;
48623;SDS011;34422;45.802;16.114;2023-02-08T08:18:02;46.50;;;23.87;;
48623;SDS011;34422;45.802;16.114;2023-02-08T08:20:29;46.47;;;21.37;;
48623;SDS011;34422;45.802;16.114;2023-02-08T08:22:56;45.73;;;21.87;;
48623;SDS011;34422;45.802;16.114;2023-02-08T08:25:23;43.87;;;22.50;;
48623;SDS011;34422;45.802;16.114;2023-02-08T08:27:49;42.70;;;22.30;;
48623;SDS011;34422;45.802;16.114;2023-02-08T08:30:16;50.50;;;24.20;;
48623;SDS011;34422;45.802;16.114;2023-02-08T08:32:43;46.33;;;22.70;;
48623;SDS011;34422;45.802;16.114;2023-02-08T08:35:10;48.73;;;23.73;;
48623;SDS011;34422;45.802;16.114;2023-02-08T08:37:37;50.97;;;24.40;;
48623;SDS011;34422;45.802;16.114;2023-02-08T08:40:04;45.63;;;24.00;;
48623;SDS011;34422;45.802;16.114;2023-02-08T08:42:33;45.10;;;22.33;;
48623;SDS011;34422;45.802;16.114;2023-02-08T08:45:02;43.67;;;21.33;;
48623;SDS011;34422;45.802;16.114;2023-02-08T08:47:29;41.50;;;23.00;;
48623;SDS011;34422;45.802;16.114;2023-02-08T08:49:56;43.37;;;22.20;;
48623;SDS011;34422;45.802;16.114;2023-02-08T08:52:23;47.73;;;23.57;;
48623;SDS011;34422;45.802;16.114;2023-02-08T08:54:49;43.83;;;22.33;;
48623;SDS011;34422;45.802;16.114;2023-02-08T08:57:16;43.80;;;22.47;;
48623;SDS011;34422;45.802;16.114;2023-02-08T08:59:43;43.47;;;21.50;;
48623;SDS011;34422;45.802;16.114;2023-02-08T09:02:13;43.47;;;23.00;;
48623;SDS011;34422;45.802;16.114;2023-02-08T09:04:40;49.20;;;25.43;;
48623;SDS011;34422;45.802;16.114;2023-02-08T09:07:08;46.23;;;25.87;;
48623;SDS011;34422;45.802;16.114;2023-02-08T09:09:35;50.83;;;24.30;;
48623;SDS011;34422;45.802;16.114;2023-02-08T09:12:02;46.50;;;25.43;;
48623;SDS011;34422;45.802;16.114;2023-02-08T09:14:29;50.37;;;25.50;;
48623;SDS011;34422;45.802;16.114;2023-02-08T09:16:56;47.63;;;24.20;;
48623;SDS011;34422;45.802;16.114;2023-02-08T09:19:23;46.83;;;25.27;;
48623;SDS011;34422;45.802;16.114;2023-02-08T09:21:50;42.20;;;22.33;;
48623;SDS011;34422;45.802;16.114;2023-02-08T09:24:17;48.77;;;23.03;;
48623;SDS011;34422;45.802;16.114;2023-02-08T09:26:44;49.23;;;23.43;;
48623;SDS011;34422;45.802;16.114;2023-02-08T09:29:11;43.33;;;22.53;;
48623;SDS011;34422;45.802;16.114;2023-02-08T09:31:38;45.67;;;23.60;;
48623;SDS011;34422;45.802;16.114;2023-02-08T09:34:05;47.40;;;23.13;;
48623;SDS011;34422;45.802;16.114;2023-02-08T09:36:33;44.63;;;23.97;;
48623;SDS011;34422;45.802;16.114;2023-02-08T09:39:15;46.43;;;23.67;;
48623;SDS011;34422;45.802;16.114;2023-02-08T09:44:32;44.20;;;23.37;;
48623;SDS011;34422;45.802;16.114;2023-02-08T09:47:17;42.53;;;22.10;;
48623;SDS011;34422;45.802;16.114;2023-02-08T09:55:42;52.47;;;25.40;;
48623;SDS011;34422;45.802;16.114;2023-02-08T09:58:17;46.37;;;23.50;;
48623;SDS011;34422;45.802;16.114;2023-02-08T10:00:50;47.10;;;23.80;;
48623;SDS011;34422;45.802;16.114;2023-02-08T10:03:35;47.97;;;24.63;;
48623;SDS011;34422;45.802;16.114;2023-02-08T10:06:04;51.43;;;24.43;;
48623;SDS011;34422;45.802;16.114;2023-02-08T10:08:35;46.08;;;24.05;;
48623;SDS011;34422;45.802;16.114;2023-02-08T10:11:08;45.33;;;22.00;;
48623;SDS011;34422;45.802;16.114;2023-02-08T10:13:51;49.47;;;24.53;;
48623;SDS011;34422;45.802;16.114;2023-02-08T10:19:09;44.03;;;23.07;;
48623;SDS011;34422;45.802;16.114;2023-02-08T10:21:58;48.30;;;25.03;;
48623;SDS011;34422;45.802;16.114;2023-02-08T10:27:36;45.00;;;23.50;;
48623;SDS011;34422;45.802;16.114;2023-02-08T10:33:05;48.17;;;23.17;;
48623;SDS011;34422;45.802;16.114;2023-02-08T10:35:47;51.17;;;23.40;;
48623;SDS011;34422;45.802;16.114;2023-02-08T10:38:22;46.50;;;23.30;;
48623;SDS011;34422;45.802;16.114;2023-02-08T10:40:56;45.23;;;21.57;;
48623;SDS011;34422;45.802;16.114;2023-02-08T10:43:34;43.60;;;23.20;;
48623;SDS011;34422;45.802;16.114;2023-02-08T10:49:02;42.57;;;21.63;;
48623;SDS011;34422;45.802;16.114;2023-02-08T10:51:40;45.30;;;22.10;;
48623;SDS011;34422;45.802;16.114;2023-02-08T10:54:10;42.20;;;22.93;;
48623;SDS011;34422;45.802;16.114;2023-02-08T10:56:43;41.88;;;22.60;;
48623;SDS011;34422;45.802;16.114;2023-02-08T10:59:16;37.03;;;19.83;;
48623;SDS011;34422;45.802;16.114;2023-02-08T11:01:46;45.83;;;22.30;;
48623;SDS011;34422;45.802;16.114;2023-02-08T11:04:15;47.33;;;23.13;;
48623;SDS011;34422;45.802;16.114;2023-02-08T11:06:44;44.23;;;21.50;;
48623;SDS011;34422;45.802;16.114;2023-02-08T11:09:20;47.80;;;23.93;;
48623;SDS011;34422;45.802;16.114;2023-02-08T11:11:50;46.37;;;23.37;;
48623;SDS011;34422;45.802;16.114;2023-02-08T11:17:00;47.53;;;22.83;;
48623;SDS011;34422;45.802;16.114;2023-02-08T11:19:39;44.47;;;21.77;;
48623;SDS011;34422;45.802;16.114;2023-02-08T11:22:14;37.97;;;20.42;;
48623;SDS011;34422;45.802;16.114;2023-02-08T11:24:43;40.47;;;20.43;;
48623;SDS011;34422;45.802;16.114;2023-02-08T11:27:29;40.23;;;21.40;;
48623;SDS011;34422;45.802;16.114;2023-02-08T11:30:32;35.13;;;18.10;;
48623;SDS011;34422;45.802;16.114;2023-02-08T11:35:55;43.87;;;20.67;;
48623;SDS011;34422;45.802;16.114;2023-02-08T11:38:22;99.47;;;39.23;;
48623;SDS011;34422;45.802;16.114;2023-02-08T11:40:54;53.38;;;22.90;;
48623;SDS011;34422;45.802;16.114;2023-02-08T11:43:24;36.77;;;18.13;;
48623;SDS011;34422;45.802;16.114;2023-02-08T11:45:53;38.23;;;19.50;;
48623;SDS011;34422;45.802;16.114;2023-02-08T11:48:23;35.03;;;18.60;;
48623;SDS011;34422;45.802;16.114;2023-02-08T11:50:55;38.20;;;19.73;;
48623;SDS011;34422;45.802;16.114;2023-02-08T11:53:27;35.93;;;17.37;;
48623;SDS011;34422;45.802;16.114;2023-02-08T11:56:06;31.10;;;17.43;;
48623;SDS011;34422;45.802;16.114;2023-02-08T11:58:33;41.80;;;21.43;;
48623;SDS011;34422;45.802;16.114;2023-02-08T12:01:01;36.47;;;17.13;;
48623;SDS011;34422;45.802;16.114;2023-02-08T12:03:42;40.00;;;18.67;;
48623;SDS011;34422;45.802;16.114;2023-02-08T12:09:02;34.13;;;18.10;;
48623;SDS011;34422;45.802;16.114;2023-02-08T12:11:36;36.83;;;18.87;;
48623;SDS011;34422;45.802;16.114;2023-02-08T12:22:30;56.23;;;23.87;;
48623;SDS011;34422;45.802;16.114;2023-02-08T12:28:09;44.40;;;21.90;;
48623;SDS011;34422;45.802;16.114;2023-02-08T12:39:11;38.20;;;18.08;;
48623;SDS011;34422;45.802;16.114;2023-02-08T12:42:20;31.88;;;17.05;;
48623;SDS011;34422;45.802;16.114;2023-02-08T12:45:15;40.60;;;20.23;;
48623;SDS011;34422;45.802;16.114;2023-02-08T12:48:10;32.43;;;16.90;;
48623;SDS011;34422;45.802;16.114;2023-02-08T12:50:52;38.67;;;17.60;;
48623;SDS011;34422;45.802;16.114;2023-02-08T12:56:00;31.83;;;17.27;;
48623;SDS011;34422;45.802;16.114;2023-02-08T12:58:38;32.17;;;16.23;;
48623;SDS011;34422;45.802;16.114;2023-02-08T13:01:28;32.90;;;17.02;;
48623;SDS011;34422;45.802;16.114;2023-02-08T13:04:07;31.90;;;16.20;;
48623;SDS011;34422;45.802;16.114;2023-02-08T13:06:43;35.40;;;16.60;;
48623;SDS011;34422;45.802;16.114;2023-02-08T13:09:22;29.20;;;14.65;;
48623;SDS011;34422;45.802;16.114;2023-02-08T13:12:10;31.83;;;15.75;;
48623;SDS011;34422;45.802;16.114;2023-02-08T13:14:52;30.08;;;15.70;;
48623;SDS011;34422;45.802;16.114;2023-02-08T13:17:27;26.98;;;17.02;;
48623;SDS011;34422;45.802;16.114;2023-02-08T13:20:04;46.40;;;21.77;;
48623;SDS011;34422;45.802;16.114;2023-02-08T13:22:41;33.08;;;18.17;;
48623;SDS011;34422;45.802;16.114;2023-02-08T13:25:13;33.90;;;17.00;;
48623;SDS011;34422;45.802;16.114;2023-02-08T13:27:46;36.13;;;19.10;;
48623;SDS011;34422;45.802;16.114;2023-02-08T13:30:15;35.05;;;18.50;;
48623;SDS011;34422;45.802;16.114;2023-02-08T13:32:44;33.75;;;18.70;;
48623;SDS011;34422;45.802;16.114;2023-02-08T13:35:20;39.78;;;19.80;;
48623;SDS011;34422;45.802;16.114;2023-02-08T13:37:55;31.73;;;16.00;;
48623;SDS011;34422;45.802;16.114;2023-02-08T13:40:29;36.07;;;19.07;;
48623;SDS011;34422;45.802;16.114;2023-02-08T13:43:03;35.22;;;18.23;;
48623;SDS011;34422;45.802;16.114;2023-02-08T13:45:38;43.20;;;21.70;;
48623;SDS011;34422;45.802;16.114;2023-02-08T13:48:13;43.28;;;21.25;;
48623;SDS011;34422;45.802;16.114;2023-02-08T13:50:46;36.10;;;19.42;;
48623;SDS011;34422;45.802;16.114;2023-02-08T13:53:14;37.08;;;18.35;;
48623;SDS011;34422;45.802;16.114;2023-02-08T13:55:56;36.20;;;19.23;;
48623;SDS011;34422;45.802;16.114;2023-02-08T13:58:33;36.73;;;18.33;;
48623;SDS011;34422;45.802;16.114;2023-02-08T14:01:13;35.38;;;20.58;;
48623;SDS011;34422;45.802;16.114;2023-02-08T14:03:43;37.97;;;20.75;;
48623;SDS011;34422;45.802;16.114;2023-02-08T14:06:22;34.27;;;18.83;;
48623;SDS011;34422;45.802;16.114;2023-02-08T14:09:04;38.07;;;20.10;;
48623;SDS011;34422;45.802;16.114;2023-02-08T14:14:37;34.03;;;18.93;;
48623;SDS011;34422;45.802;16.114;2023-02-08T14:19:54;36.40;;;19.75;;
48623;SDS011;34422;45.802;16.114;2023-02-08T14:22:23;36.65;;;18.50;;
48623;SDS011;34422;45.802;16.114;2023-02-08T14:25:00;39.58;;;19.90;;
48623;SDS011;34422;45.802;16.114;2023-02-08T14:32:43;37.13;;;20.10;;
48623;SDS011;34422;45.802;16.114;2023-02-08T14:38:29;33.93;;;18.57;;
48623;SDS011;34422;45.802;16.114;2023-02-08T14:45:49;41.05;;;20.42;;
48623;SDS011;34422;45.802;16.114;2023-02-08T14:48:36;35.53;;;19.67;;
48623;SDS011;34422;45.802;16.114;2023-02-08T14:51:15;42.43;;;19.60;;
48623;SDS011;34422;45.802;16.114;2023-02-08T14:53:53;36.10;;;19.50;;
48623;SDS011;34422;45.802;16.114;2023-02-08T14:56:32;39.93;;;20.17;;
48623;SDS011;34422;45.802;16.114;2023-02-08T14:59:15;44.47;;;23.53;;
48623;SDS011;34422;45.802;16.114;2023-02-08T15:01:49;43.27;;;22.40;;
48623;SDS011;34422;45.802;16.114;2023-02-08T15:04:19;40.83;;;19.37;;
48623;SDS011;34422;45.802;16.114;2023-02-08T15:09:36;38.77;;;21.27;;
48623;SDS011;34422;45.802;16.114;2023-02-08T15:15:03;40.00;;;20.77;;
48623;SDS011;34422;45.802;16.114;2023-02-08T15:17:33;42.33;;;22.47;;
48623;SDS011;34422;45.802;16.114;2023-02-08T15:20:03;37.40;;;21.05;;
48623;SDS011;34422;45.802;16.114;2023-02-08T15:22:35;36.17;;;19.75;;
48623;SDS011;34422;45.802;16.114;2023-02-08T15:25:12;35.90;;;19.70;;
48623;SDS011;34422;45.802;16.114;2023-02-08T15:32:49;35.63;;;19.70;;
48623;SDS011;34422;45.802;16.114;2023-02-08T15:35:17;42.27;;;20.83;;
48623;SDS011;34422;45.802;16.114;2023-02-08T15:37:49;44.50;;;23.07;;
48623;SDS011;34422;45.802;16.114;2023-02-08T15:40:24;44.57;;;22.37;;
48623;SDS011;34422;45.802;16.114;2023-02-08T15:42:53;44.53;;;23.13;;
48623;SDS011;34422;45.802;16.114;2023-02-08T15:45:25;38.97;;;22.47;;
48623;SDS011;34422;45.802;16.114;2023-02-08T15:47:56;35.60;;;19.57;;
48623;SDS011;34422;45.802;16.114;2023-02-08T15:50:24;41.10;;;22.27;;
48623;SDS011;34422;45.802;16.114;2023-02-08T15:52:59;54.23;;;25.87;;
48623;SDS011;34422;45.802;16.114;2023-02-08T15:55:30;52.30;;;26.87;;
48623;SDS011;34422;45.802;16.114;2023-02-08T15:58:05;84.77;;;34.27;;
48623;SDS011;34422;45.802;16.114;2023-02-08T16:00:41;57.10;;;28.40;;
48623;SDS011;34422;45.802;16.114;2023-02-08T16:03:18;54.23;;;26.83;;
48623;SDS011;34422;45.802;16.114;2023-02-08T16:05:52;40.30;;;21.63;;
48623;SDS011;34422;45.802;16.114;2023-02-08T16:08:23;41.93;;;21.13;;
48623;SDS011;34422;45.802;16.114;2023-02-08T16:10:52;42.13;;;21.60;;
48623;SDS011;34422;45.802;16.114;2023-02-08T16:13:23;41.60;;;21.85;;
48623;SDS011;34422;45.802;16.114;2023-02-08T16:15:55;43.28;;;21.92;;
48623;SDS011;34422;45.802;16.114;2023-02-08T16:18:34;42.40;;;22.80;;
48623;SDS011;34422;45.802;16.114;2023-02-08T16:21:15;54.80;;;25.80;;
48623;SDS011;34422;45.802;16.114;2023-02-08T16:23:52;42.27;;;22.50;;
48623;SDS011;34422;45.802;16.114;2023-02-08T16:26:25;43.70;;;23.07;;